CheckWX is a tool to help pilots better visualize weather data.  It is not intended as a substitute for an official pre-flight weather briefing.

21:41:30 UTC

KOWI METAR
Ottawa Municipal Airport
Ottawa, Kansas, USA
Current

32 mins ago

KOWI 312110Z AUTO 28007G14KT 10SM FEW085 21/06 A2997 RMK AO2
Observed
Mar-31 @ 21:10 UTC
Wind
  • 280° at 7 KTS
  • Gusting to 14 KTS
Visibility
10 SM
Flight Rules
VFR
Cloud Levels
  • Few at 8,500' AGL
Temperature
21°C / 70°F
Dewpoint
C / 43°F
Humidity
38%
Altimeter
29.97" Hg
Pressure
1014.92 hPa
Previous

52 mins ago

KOWI 312050Z AUTO 33007KT 10SM FEW060 SCT075 BKN085 20/05 A2998 RMK AO2
Observed
Mar-31 @ 20:50 UTC
Wind
  • 330° at 7 KTS
Visibility
10 SM
Flight Rules
VFR
Cloud Levels
  • Few at 6,000' AGL
  • Scattered at 7,500' AGL
  • Broken at 8,500' AGL
Temperature
20°C / 68°F
Dewpoint
C / 41°F
Humidity
38%
Altimeter
29.98" Hg
Pressure
1015.22 hPa
Previous

1 hour ago

KOWI 312030Z AUTO 29011G17KT 10SM BKN060 BKN070 BKN080 21/06 A2998 RMK AO2
Observed
Mar-31 @ 20:30 UTC
Wind
  • 290° at 11 KTS
  • Gusting to 17 KTS
Visibility
10 SM
Flight Rules
VFR
Cloud Levels
  • Broken at 6,000' AGL
  • Broken at 7,000' AGL
  • Broken at 8,000' AGL
Temperature
21°C / 70°F
Dewpoint
C / 43°F
Humidity
38%
Altimeter
29.98" Hg
Pressure
1015.22 hPa